createdAt,value
2023-01-26T00:02:04.024Z,96505.81
2023-01-26T00:04:31.895Z,96500.69
2023-01-26T00:07:01.114Z,96510.31
2023-01-26T00:09:29.014Z,96501.69
2023-01-26T00:11:56.851Z,96495.59
2023-01-26T00:14:24.816Z,96501.34
2023-01-26T00:16:53.718Z,96491.09
2023-01-26T00:19:21.629Z,96490.16
2023-01-26T00:21:49.508Z,96489.19
2023-01-26T00:24:18.780Z,96490.16
2023-01-26T00:26:46.708Z,96481.47
2023-01-26T00:29:14.576Z,96498.06
2023-01-26T00:31:42.487Z,96482.13
2023-01-26T00:34:10.374Z,96473.78
2023-01-26T00:36:38.726Z,96477.47
2023-01-26T00:39:06.557Z,96476.84
2023-01-26T00:42:01.520Z,96476.03
2023-01-26T00:44:29.502Z,96472.34
2023-01-26T00:46:57.377Z,96464.34
2023-01-26T00:49:25.479Z,96464.16
2023-01-26T00:51:53.336Z,96466.81
2023-01-26T00:54:21.206Z,96459.84
2023-01-26T00:56:50.449Z,96459.34
2023-01-26T00:59:18.305Z,96457.41
2023-01-26T01:01:46.167Z,96453.84
2023-01-26T01:04:14.129Z,96453.22
2023-01-26T01:06:42.181Z,96449.81
2023-01-26T01:09:10.313Z,96443.66
2023-01-26T01:11:38.555Z,96441.41
2023-01-26T01:14:07.811Z,96440.16
2023-01-26T01:16:35.721Z,96442.56
2023-01-26T01:19:03.567Z,96427.38
2023-01-26T01:21:32.070Z,96426.88
2023-01-26T01:24:00.226Z,96418.25
2023-01-26T01:26:28.440Z,96413.94
2023-01-26T01:28:57.610Z,96409.69
2023-01-26T01:31:29.358Z,96406.53
2023-01-26T01:33:57.878Z,96384.31
2023-01-26T01:36:26.277Z,96391.38
2023-01-26T01:38:54.286Z,96400.19
2023-01-26T01:41:23.841Z,96391.53
2023-01-26T01:43:52.296Z,96393.47
2023-01-26T01:46:31.898Z,96385.00
2023-01-26T01:49:04.215Z,96381.97
2023-01-26T01:51:38.596Z,96373.31
2023-01-26T01:54:12.544Z,96376.38
2023-01-26T01:56:47.647Z,96372.22
2023-01-26T01:59:16.371Z,96374.78
2023-01-26T02:01:45.750Z,96361.19
2023-01-26T02:04:14.331Z,96374.63
2023-01-26T02:06:48.470Z,96358.91
2023-01-26T02:09:32.813Z,96369.13
2023-01-26T02:12:04.500Z,96365.28
2023-01-26T02:14:34.011Z,96356.16
2023-01-26T02:17:03.481Z,96365.78
2023-01-26T02:19:44.925Z,96367.53
2023-01-26T02:22:28.613Z,96362.38
2023-01-26T02:25:03.341Z,96357.13
2023-01-26T02:27:32.688Z,96356.19
2023-01-26T02:30:04.499Z,96342.44
2023-01-26T02:32:32.415Z,96346.94
2023-01-26T02:35:00.301Z,96349.00
2023-01-26T02:37:28.242Z,96353.31
2023-01-26T02:40:03.016Z,96362.75
2023-01-26T02:42:41.903Z,96362.13
2023-01-26T02:45:12.559Z,96351.25
2023-01-26T02:47:41.372Z,96353.97
2023-01-26T02:50:10.575Z,96354.78
2023-01-26T02:52:39.275Z,96360.06
2023-01-26T02:55:25.148Z,96348.84
2023-01-26T02:57:56.855Z,96336.72
2023-01-26T03:00:27.155Z,96334.94
2023-01-26T03:02:58.997Z,96321.16
2023-01-26T03:05:27.662Z,96331.56
2023-01-26T03:07:56.338Z,96338.94
2023-01-26T03:10:27.026Z,96340.69
2023-01-26T03:12:56.353Z,96322.63
2023-01-26T03:15:43.563Z,96320.88
2023-01-26T03:18:36.617Z,96328.72
2023-01-26T03:21:25.234Z,96331.75
2023-01-26T03:24:19.155Z,96318.63
2023-01-26T03:27:05.123Z,96326.00
2023-01-26T03:29:35.552Z,96323.75
2023-01-26T03:32:03.470Z,96319.59
2023-01-26T03:34:31.424Z,96330.63
2023-01-26T03:36:59.320Z,96328.56
2023-01-26T03:39:44.595Z,96324.22
2023-01-26T03:42:30.024Z,96330.97
2023-01-26T03:45:16.856Z,96322.16
2023-01-26T03:48:02.429Z,96316.72
2023-01-26T03:50:47.981Z,96312.91
2023-01-26T03:53:34.890Z,96313.97
2023-01-26T03:56:18.504Z,96311.44
2023-01-26T03:58:46.523Z,96307.38
2023-01-26T04:01:21.685Z,96305.63
2023-01-26T04:04:09.035Z,96319.19
2023-01-26T04:06:56.930Z,96309.75
2023-01-26T04:09:25.424Z,96313.94
2023-01-26T04:11:53.440Z,96311.50
2023-01-26T04:14:49.702Z,96304.94
2023-01-26T04:17:37.778Z,96298.41
2023-01-26T04:20:25.381Z,96306.59
2023-01-26T04:22:53.306Z,96294.47
2023-01-26T04:25:22.986Z,96294.63
2023-01-26T04:27:51.143Z,96296.88
2023-01-26T04:30:20.001Z,96294.47
2023-01-26T04:32:49.309Z,96296.41
2023-01-26T04:35:17.328Z,96291.25
2023-01-26T04:37:45.221Z,96282.50
2023-01-26T04:40:14.098Z,96290.00
2023-01-26T04:42:42.129Z,96285.22
2023-01-26T04:45:11.611Z,96282.81
2023-01-26T04:47:39.514Z,96287.94
2023-01-26T04:50:10.948Z,96277.88
2023-01-26T04:52:38.989Z,96283.44
2023-01-26T04:55:07.197Z,96289.50
2023-01-26T04:57:35.061Z,96302.94
2023-01-26T05:00:03.535Z,96268.72
2023-01-26T05:02:31.363Z,96286.19
2023-01-26T05:04:59.208Z,96291.47
2023-01-26T05:07:28.479Z,96280.25
2023-01-26T05:09:56.386Z,96288.09
2023-01-26T05:12:37.548Z,96289.53
2023-01-26T05:15:05.960Z,96285.38
2023-01-26T05:17:33.811Z,96296.91
2023-01-26T05:20:01.662Z,96293.38
2023-01-26T05:22:30.897Z,96293.53
2023-01-26T05:24:58.757Z,96298.31
2023-01-26T05:27:26.760Z,96297.03
2023-01-26T05:29:55.205Z,96294.66
2023-01-26T05:32:23.081Z,96298.31
2023-01-26T05:34:50.929Z,96292.56
2023-01-26T05:37:18.796Z,96284.41
2023-01-26T05:39:48.228Z,96290.66
2023-01-26T05:42:16.140Z,96299.75
2023-01-26T05:44:43.983Z,96299.41
2023-01-26T05:47:11.854Z,96303.09
2023-01-26T05:49:42.828Z,96308.06
2023-01-26T05:52:12.324Z,96299.63
2023-01-26T05:54:40.308Z,96311.28
2023-01-26T05:57:10.663Z,96304.75
2023-01-26T05:59:38.840Z,96311.13
2023-01-26T06:02:07.231Z,96310.63
2023-01-26T06:04:35.178Z,96315.13
2023-01-26T06:07:03.210Z,96305.50
2023-01-26T06:09:31.327Z,96316.38
2023-01-26T06:11:59.220Z,96318.31
2023-01-26T06:14:28.445Z,96314.97
2023-01-26T06:16:56.865Z,96315.91
2023-01-26T06:19:24.808Z,96316.56
2023-01-26T06:21:53.497Z,96322.66
2023-01-26T06:24:21.504Z,96320.75
2023-01-26T06:26:49.717Z,96314.50
2023-01-26T06:29:17.818Z,96325.38
2023-01-26T06:31:47.108Z,96322.16
2023-01-26T06:34:15.047Z,96310.31
2023-01-26T06:36:43.014Z,96311.94
2023-01-26T06:39:12.854Z,96312.72
2023-01-26T06:41:40.795Z,96301.69
2023-01-26T06:44:09.913Z,96306.16
2023-01-26T06:46:37.965Z,96298.81
2023-01-26T06:49:07.270Z,96305.34
2023-01-26T06:51:58.297Z,96296.41
2023-01-26T06:54:26.243Z,96288.25
2023-01-26T06:56:54.140Z,96301.19
2023-01-26T06:59:22.074Z,96286.34
2023-01-26T07:01:50.136Z,96296.72
2023-01-26T07:04:19.413Z,96279.78
2023-01-26T07:06:47.265Z,96292.72
2023-01-26T07:09:15.114Z,96282.16
2023-01-26T07:11:42.987Z,96281.69
2023-01-26T07:14:10.882Z,96292.06
2023-01-26T07:16:38.897Z,96286.47
2023-01-26T07:19:06.767Z,96289.03
2023-01-26T07:21:39.134Z,96286.03
2023-01-26T07:24:08.155Z,96285.97
2023-01-26T07:26:36.198Z,96285.03
2023-01-26T07:29:04.070Z,96287.44
2023-01-26T07:31:31.952Z,96290.66
2023-01-26T07:33:59.843Z,96289.84
2023-01-26T07:36:27.740Z,96288.25
2023-01-26T07:38:56.973Z,96288.56
2023-01-26T07:41:24.829Z,96284.88
2023-01-26T07:43:52.748Z,96296.41
2023-01-26T07:46:20.706Z,96290.50
2023-01-26T07:48:48.705Z,96288.59
2023-01-26T07:51:16.614Z,96289.84
2023-01-26T07:53:45.239Z,96296.72
2023-01-26T07:56:16.996Z,96301.53
2023-01-26T07:58:44.878Z,96289.84
2023-01-26T08:01:14.752Z,96293.34
2023-01-26T08:03:45.507Z,96289.84
2023-01-26T08:06:15.727Z,96288.41
2023-01-26T08:08:44.214Z,96278.97
2023-01-26T08:11:14.222Z,96285.66
2023-01-26T08:13:42.091Z,96277.84
2023-01-26T08:16:13.111Z,96274.97
2023-01-26T08:18:42.956Z,96271.44
2023-01-26T08:21:12.496Z,96280.56
2023-01-26T08:23:41.135Z,96267.28
2023-01-26T08:26:11.604Z,96267.41
2023-01-26T08:28:42.157Z,96256.69
2023-01-26T08:31:13.225Z,96267.41
2023-01-26T08:33:43.154Z,96258.78
2023-01-26T08:36:13.596Z,96258.47
2023-01-26T08:38:42.329Z,96256.59
2023-01-26T08:41:10.956Z,96272.28
2023-01-26T08:43:40.597Z,96270.34
2023-01-26T08:46:09.220Z,96272.09
2023-01-26T08:48:37.508Z,96276.75
2023-01-26T08:51:08.025Z,96269.06
2023-01-26T08:53:38.445Z,96273.69
2023-01-26T08:56:09.386Z,96270.97
2023-01-26T08:58:37.390Z,96265.38
2023-01-26T09:01:07.775Z,96273.84
2023-01-26T09:03:36.258Z,96265.69
2023-01-26T09:06:06.037Z,96272.91
2023-01-26T09:08:33.927Z,96265.22
2023-01-26T09:11:02.061Z,96264.59
2023-01-26T09:13:29.967Z,96263.94
2023-01-26T09:15:57.846Z,96260.28
2023-01-26T09:18:27.101Z,96257.22
2023-01-26T09:20:55.899Z,96268.41
2023-01-26T09:23:23.730Z,96263.63
2023-01-26T09:25:54.267Z,96270.34
2023-01-26T09:28:22.215Z,96272.25
2023-01-26T09:30:50.107Z,96271.78
2023-01-26T09:33:18.303Z,96279.78
2023-01-26T09:35:47.550Z,96277.38
2023-01-26T09:38:15.503Z,96280.28
2023-01-26T09:40:58.577Z,96274.50
2023-01-26T09:43:38.840Z,96287.13
2023-01-26T09:46:21.608Z,96280.75
2023-01-26T09:49:03.712Z,96287.44
2023-01-26T09:51:38.742Z,96286.00
2023-01-26T09:54:21.189Z,96284.41
2023-01-26T09:56:49.142Z,96287.44
2023-01-26T09:59:28.707Z,96281.03
2023-01-26T10:02:06.613Z,96283.78
2023-01-26T10:04:38.112Z,96274.81
2023-01-26T10:07:12.542Z,96286.16
2023-01-26T10:09:46.022Z,96281.38
2023-01-26T10:12:21.001Z,96281.53
2023-01-26T10:14:55.376Z,96279.94
2023-01-26T10:17:33.059Z,96276.06
2023-01-26T10:20:07.403Z,96280.56
2023-01-26T10:22:46.799Z,96286.16
2023-01-26T10:25:17.577Z,96275.78
2023-01-26T10:27:46.210Z,96279.31
2023-01-26T10:30:16.221Z,96271.16
2023-01-26T10:32:46.978Z,96278.00
2023-01-26T10:35:19.376Z,96271.31
2023-01-26T10:37:49.461Z,96273.53
2023-01-26T10:40:18.504Z,96274.81
2023-01-26T10:42:57.509Z,96278.97
2023-01-26T10:45:29.968Z,96273.53
2023-01-26T10:48:18.855Z,96272.28
2023-01-26T10:50:48.083Z,96277.88
2023-01-26T10:53:23.673Z,96277.06
2023-01-26T10:56:04.467Z,96279.31
2023-01-26T10:58:45.677Z,96280.56
2023-01-26T11:01:15.676Z,96269.41
2023-01-26T11:03:45.451Z,96262.50
2023-01-26T11:06:16.700Z,96261.72
2023-01-26T11:08:45.939Z,96264.59
2023-01-26T11:11:27.399Z,96259.31
2023-01-26T11:14:16.120Z,96263.31
2023-01-26T11:16:51.278Z,96260.44
2023-01-26T11:19:44.389Z,96252.28
2023-01-26T11:22:20.224Z,96245.72
2023-01-26T11:25:00.922Z,96240.75
2023-01-26T11:27:41.216Z,96243.16
2023-01-26T11:30:46.136Z,96244.44
2023-01-26T11:33:25.615Z,96242.50
2023-01-26T11:36:01.749Z,96238.34
2023-01-26T11:38:40.715Z,96240.91
2023-01-26T11:41:26.185Z,96241.56
2023-01-26T11:44:14.710Z,96232.28
2023-01-26T11:46:59.275Z,96228.94
2023-01-26T11:49:44.814Z,96225.56
2023-01-26T11:52:24.442Z,96218.53
2023-01-26T11:55:19.176Z,96220.44
2023-01-26T11:58:13.239Z,96214.34
2023-01-26T12:00:45.337Z,96212.75
2023-01-26T12:03:24.376Z,96206.16
2023-01-26T12:05:56.533Z,96209.84
2023-01-26T12:08:30.753Z,96198.97
2023-01-26T12:11:21.870Z,96195.66
2023-01-26T12:14:00.559Z,96197.06
2023-01-26T12:16:39.428Z,96192.63
2023-01-26T12:19:16.617Z,96190.03
2023-01-26T12:21:46.985Z,96179.16
2023-01-26T12:24:48.391Z,96176.94
2023-01-26T12:27:23.020Z,96171.78
2023-01-26T12:30:02.275Z,96180.41
2023-01-26T12:32:30.156Z,96175.59
2023-01-26T12:34:59.136Z,96170.41
2023-01-26T12:37:43.333Z,96171.75
2023-01-26T12:40:26.288Z,96172.91
2023-01-26T12:43:07.653Z,96168.53
2023-01-26T12:45:41.218Z,96165.66
2023-01-26T12:48:19.466Z,96162.09
2023-01-26T12:50:53.776Z,96164.50
2023-01-26T12:53:31.525Z,96160.50
2023-01-26T12:56:15.065Z,96164.09
2023-01-26T12:58:47.068Z,96152.00
2023-01-26T13:01:19.800Z,96145.94
2023-01-26T13:03:55.817Z,96154.22
2023-01-26T13:06:25.619Z,96154.69
2023-01-26T13:09:04.466Z,96157.72
2023-01-26T13:11:50.251Z,96154.06
2023-01-26T13:14:59.476Z,96150.19
2023-01-26T13:17:59.906Z,96149.22
2023-01-26T13:20:46.802Z,96159.16
2023-01-26T13:23:40.923Z,96154.88
2023-01-26T13:26:33.354Z,96155.03
2023-01-26T13:29:29.183Z,96146.03
2023-01-26T13:31:59.673Z,96142.41
2023-01-26T13:34:33.287Z,96145.47
2023-01-26T13:37:15.968Z,96139.75
2023-01-26T13:39:52.923Z,96144.53
2023-01-26T13:42:28.460Z,96146.28
2023-01-26T13:45:01.831Z,96153.16
2023-01-26T13:47:37.186Z,96143.09
2023-01-26T13:50:23.372Z,96146.75
2023-01-26T13:52:51.477Z,96155.84
2023-01-26T13:55:25.622Z,96160.00
2023-01-26T13:58:11.782Z,96156.03
2023-01-26T14:00:39.790Z,96153.00
2023-01-26T14:03:22.670Z,96143.56
2023-01-26T14:05:58.707Z,96158.91
2023-01-26T14:08:27.291Z,96154.75
2023-01-26T14:10:55.467Z,96162.78
2023-01-26T14:13:33.992Z,96162.78
2023-01-26T14:16:07.247Z,96147.44
2023-01-26T14:18:35.596Z,96169.00
2023-01-26T14:21:15.461Z,96163.09
2023-01-26T14:23:43.330Z,96165.94
2023-01-26T14:26:22.035Z,96164.78
2023-01-26T14:28:49.937Z,96157.78
2023-01-26T14:31:21.035Z,96165.09
2023-01-26T14:33:51.927Z,96162.69
2023-01-26T14:36:22.096Z,96157.13
2023-01-26T14:38:53.128Z,96155.22
2023-01-26T14:41:25.587Z,96165.25
2023-01-26T14:43:58.601Z,96166.03
2023-01-26T14:46:34.562Z,96164.16
2023-01-26T14:49:10.412Z,96167.06
2023-01-26T14:51:40.503Z,96173.63
2023-01-26T14:54:19.814Z,96172.19
2023-01-26T14:56:49.411Z,96165.31
2023-01-26T14:59:24.781Z,96182.09
2023-01-26T15:02:02.803Z,96187.88
2023-01-26T15:04:41.005Z,96192.50
2023-01-26T15:07:33.136Z,96193.09
2023-01-26T15:10:01.600Z,96181.28
2023-01-26T15:12:35.072Z,96183.53
2023-01-26T15:15:03.866Z,96181.78
2023-01-26T15:17:39.246Z,96173.31
2023-01-26T15:20:27.874Z,96181.63
2023-01-26T15:22:57.070Z,96179.22
2023-01-26T15:25:27.147Z,96173.19
2023-01-26T15:27:58.885Z,96181.94
2023-01-26T15:30:29.645Z,96184.50
2023-01-26T15:32:57.690Z,96186.59
2023-01-26T15:35:27.744Z,96193.78
2023-01-26T15:38:03.944Z,96185.81
2023-01-26T15:40:32.445Z,96187.72
2023-01-26T15:43:21.935Z,96194.59
2023-01-26T15:45:53.044Z,96186.91
2023-01-26T15:48:21.697Z,96184.03
2023-01-26T15:50:49.802Z,96190.56
2023-01-26T15:53:21.430Z,96197.13
2023-01-26T15:55:52.883Z,96195.72
2023-01-26T15:58:21.044Z,96191.84
2023-01-26T16:00:49.950Z,96194.91
2023-01-26T16:03:20.900Z,96186.59
2023-01-26T16:05:49.698Z,96194.91
2023-01-26T16:08:20.066Z,96193.78
2023-01-26T16:10:48.570Z,96186.91
2023-01-26T16:13:19.513Z,96195.53
2023-01-26T16:15:49.877Z,96198.25
2023-01-26T16:18:17.872Z,96196.19
2023-01-26T16:20:48.413Z,96194.25
2023-01-26T16:23:21.212Z,96194.28
2023-01-26T16:25:50.225Z,96199.84
2023-01-26T16:28:18.903Z,96186.59
2023-01-26T16:30:49.450Z,96193.94
2023-01-26T16:33:20.972Z,96196.16
2023-01-26T16:35:48.957Z,96193.13
2023-01-26T16:38:17.115Z,96200.66
2023-01-26T16:40:49.791Z,96194.72
2023-01-26T16:43:23.983Z,96196.97
2023-01-26T16:45:52.394Z,96206.72
2023-01-26T16:48:21.455Z,96200.34
2023-01-26T16:50:53.222Z,96201.63
2023-01-26T16:53:27.184Z,96207.69
2023-01-26T16:55:56.472Z,96203.69
2023-01-26T16:58:26.651Z,96207.84
2023-01-26T17:00:55.792Z,96216.16
2023-01-26T17:03:24.088Z,96213.94
2023-01-26T17:05:52.007Z,96214.72
2023-01-26T17:08:20.043Z,96209.75
2023-01-26T17:11:01.112Z,96208.97
2023-01-26T17:13:31.705Z,96209.91
2023-01-26T17:16:00.113Z,96203.97
2023-01-26T17:18:28.119Z,96200.31
2023-01-26T17:21:02.250Z,96210.56
2023-01-26T17:23:31.329Z,96204.19
2023-01-26T17:25:59.898Z,96214.09
2023-01-26T17:28:28.598Z,96212.78
2023-01-26T17:31:00.843Z,96216.31
2023-01-26T17:33:29.868Z,96206.84
2023-01-26T17:36:01.415Z,96201.75
2023-01-26T17:38:29.305Z,96204.47
2023-01-26T17:40:59.460Z,96197.75
2023-01-26T17:43:28.563Z,96196.63
2023-01-26T17:46:05.258Z,96196.50
2023-01-26T17:48:34.244Z,96202.06
2023-01-26T17:51:02.145Z,96195.69
2023-01-26T17:53:30.008Z,96193.78
2023-01-26T17:55:57.872Z,96201.13
2023-01-26T17:58:25.780Z,96206.56
2023-01-26T18:00:53.963Z,96196.00
2023-01-26T18:03:26.320Z,96206.72
2023-01-26T18:05:55.394Z,96204.19
2023-01-26T18:08:24.048Z,96194.56
2023-01-26T18:10:57.899Z,96194.72
2023-01-26T18:13:25.846Z,96204.19
2023-01-26T18:15:54.923Z,96194.09
2023-01-26T18:18:24.831Z,96207.19
2023-01-26T18:20:53.624Z,96204.63
2023-01-26T18:23:23.742Z,96200.31
2023-01-26T18:25:52.637Z,96211.31
2023-01-26T18:28:20.616Z,96205.91
2023-01-26T18:30:48.576Z,96212.28
2023-01-26T18:33:16.474Z,96210.34
2023-01-26T18:35:45.750Z,96197.22
2023-01-26T18:38:13.668Z,96208.13
2023-01-26T18:40:41.598Z,96208.13
2023-01-26T18:43:10.988Z,96214.69
2023-01-26T18:45:42.212Z,96201.41
2023-01-26T18:48:10.147Z,96201.56
2023-01-26T18:50:38.986Z,96202.06
2023-01-26T18:53:08.292Z,96200.94
2023-01-26T18:55:36.553Z,96198.38
2023-01-26T18:58:04.547Z,96200.31
2023-01-26T19:00:32.496Z,96197.88
2023-01-26T19:03:00.455Z,96198.19
2023-01-26T19:05:29.376Z,96199.00
2023-01-26T19:07:57.731Z,96203.00
2023-01-26T19:10:27.091Z,96192.00
2023-01-26T19:12:55.042Z,96200.94
2023-01-26T19:15:22.943Z,96201.91
2023-01-26T19:17:50.896Z,96192.97
2023-01-26T19:20:19.227Z,96204.47
2023-01-26T19:22:53.820Z,96200.16
2023-01-26T19:25:21.901Z,96198.41
2023-01-26T19:27:51.323Z,96208.16
2023-01-26T19:30:20.032Z,96201.63
2023-01-26T19:33:21.677Z,96203.84
2023-01-26T19:35:49.781Z,96201.47
2023-01-26T19:38:18.524Z,96205.44
2023-01-26T19:40:48.102Z,96197.78
2023-01-26T19:43:20.067Z,96205.13
2023-01-26T19:45:50.564Z,96196.81
2023-01-26T19:48:18.525Z,96196.97
2023-01-26T19:50:46.536Z,96197.94
2023-01-26T19:53:14.446Z,96201.91
2023-01-26T19:55:42.733Z,96209.13
2023-01-26T19:58:10.610Z,96204.63
2023-01-26T20:00:39.857Z,96196.63
2023-01-26T20:03:07.745Z,96198.72
2023-01-26T20:05:37.290Z,96196.31
2023-01-26T20:08:06.510Z,96194.56
2023-01-26T20:10:34.393Z,96200.00
2023-01-26T20:13:02.347Z,96199.19
2023-01-26T20:15:30.267Z,96189.75
2023-01-26T20:17:59.521Z,96205.13
2023-01-26T20:20:27.486Z,96209.91
2023-01-26T20:22:55.356Z,96221.44
2023-01-26T20:25:23.355Z,96211.84
2023-01-26T20:27:51.319Z,96213.28
2023-01-26T20:30:20.049Z,96208.34
2023-01-26T20:32:48.155Z,96196.50
2023-01-26T20:35:17.517Z,96196.81
2023-01-26T20:37:45.461Z,96204.81
2023-01-26T20:40:14.039Z,96207.19
2023-01-26T20:42:42.250Z,96206.59
2023-01-26T20:45:10.606Z,96204.03
2023-01-26T20:47:40.446Z,96210.41
2023-01-26T20:50:09.763Z,96203.69
2023-01-26T20:52:41.765Z,96203.06
2023-01-26T20:55:13.175Z,96193.94
2023-01-26T20:57:43.854Z,96204.81
2023-01-26T21:00:13.237Z,96213.28
2023-01-26T21:02:41.303Z,96203.69
2023-01-26T21:05:09.675Z,96199.84
2023-01-26T21:07:39.012Z,96192.81
2023-01-26T21:10:07.415Z,96197.31
2023-01-26T21:12:37.207Z,96202.09
2023-01-26T21:15:06.010Z,96194.56
2023-01-26T21:17:34.237Z,96200.66
2023-01-26T21:20:02.095Z,96185.94
2023-01-26T21:22:30.087Z,96195.06
2023-01-26T21:24:59.277Z,96199.06
2023-01-26T21:27:27.166Z,96185.28
2023-01-26T21:29:55.082Z,96190.25
2023-01-26T21:32:23.014Z,96193.28
2023-01-26T21:34:51.152Z,96198.41
2023-01-26T21:37:19.050Z,96194.06
2023-01-26T21:39:46.971Z,96183.06
2023-01-26T21:42:16.449Z,96187.84
2023-01-26T21:45:01.881Z,96182.25
2023-01-26T21:47:29.819Z,96185.13
2023-01-26T21:49:59.322Z,96185.28
2023-01-26T21:52:44.997Z,96185.94
2023-01-26T21:55:12.936Z,96186.44
2023-01-26T21:57:59.886Z,96187.19
2023-01-26T22:00:27.815Z,96192.28
2023-01-26T22:02:56.483Z,96183.16
2023-01-26T22:05:24.395Z,96191.94
2023-01-26T22:07:52.298Z,96187.53
2023-01-26T22:10:20.239Z,96182.38
2023-01-26T22:12:49.446Z,96179.81
2023-01-26T22:15:17.519Z,96178.22
2023-01-26T22:17:45.493Z,96185.91
2023-01-26T22:20:14.082Z,96182.72
2023-01-26T22:22:42.160Z,96187.66
2023-01-26T22:25:10.857Z,96187.47
2023-01-26T22:27:40.612Z,96188.31
2023-01-26T22:30:11.717Z,96185.41
2023-01-26T22:32:39.747Z,96174.41
2023-01-26T22:35:07.961Z,96177.91
2023-01-26T22:37:35.852Z,96168.31
2023-01-26T22:40:03.835Z,96171.84
2023-01-26T22:42:31.937Z,96170.34
2023-01-26T22:44:59.755Z,96160.16
2023-01-26T22:47:29.455Z,96168.16
2023-01-26T22:49:57.584Z,96165.47
2023-01-26T22:52:25.467Z,96162.28
2023-01-26T22:54:53.287Z,96165.75
2023-01-26T22:57:21.155Z,96157.94
2023-01-26T22:59:49.366Z,96156.84
2023-01-26T23:02:17.304Z,96165.81
2023-01-26T23:04:46.546Z,96162.94
2023-01-26T23:07:14.818Z,96148.88
2023-01-26T23:09:42.695Z,96158.47
2023-01-26T23:12:10.731Z,96163.69
2023-01-26T23:14:38.683Z,96167.06
2023-01-26T23:17:08.149Z,96161.63
2023-01-26T23:19:36.033Z,96158.78
2023-01-26T23:22:06.607Z,96166.28
2023-01-26T23:24:34.466Z,96159.72
2023-01-26T23:27:02.446Z,96162.94
2023-01-26T23:29:30.350Z,96158.63
2023-01-26T23:31:58.318Z,96169.00
2023-01-26T23:34:26.245Z,96160.69
2023-01-26T23:36:54.210Z,96162.94
2023-01-26T23:39:23.477Z,96157.19
2023-01-26T23:41:51.292Z,96154.00
2023-01-26T23:44:19.145Z,96150.00
2023-01-26T23:46:47.166Z,96146.31
2023-01-26T23:49:15.090Z,96147.59
2023-01-26T23:51:42.933Z,96144.41
2023-01-26T23:54:10.768Z,96152.38
2023-01-26T23:56:40.000Z,96145.34
2023-01-26T23:59:07.867Z,96147.91
